createdAt,value
2019-03-21T00:00:34.591Z,7.00
2019-03-21T00:03:04.648Z,7.10
2019-03-21T00:05:36.378Z,7.20
2019-03-21T00:08:08.047Z,7.20
2019-03-21T00:11:24.745Z,7.30
2019-03-21T00:14:06.385Z,7.40
2019-03-21T00:16:28.014Z,7.40
2019-03-21T00:18:57.825Z,7.30
2019-03-21T00:21:27.682Z,7.10
2019-03-21T00:23:57.743Z,7.00
2019-03-21T00:26:27.642Z,6.90
2019-03-21T00:28:57.521Z,6.90
2019-03-21T00:31:27.396Z,7.00
2019-03-21T00:33:57.552Z,7.00
2019-03-21T00:36:27.532Z,6.90
2019-03-21T00:38:57.732Z,7.10
2019-03-21T00:41:27.834Z,6.90
2019-03-21T00:43:57.557Z,6.90
2019-03-21T00:46:27.353Z,6.70
2019-03-21T00:48:57.446Z,6.80
2019-03-21T00:51:27.290Z,6.80
2019-03-21T00:53:57.985Z,6.80
2019-03-21T00:56:28.413Z,6.10
2019-03-21T00:58:58.381Z,6.70
2019-03-21T01:01:28.270Z,6.80
2019-03-21T01:03:58.113Z,6.90
2019-03-21T01:06:28.176Z,6.80
2019-03-21T01:08:58.295Z,6.70
2019-03-21T01:11:28.149Z,6.70
2019-03-21T01:13:58.247Z,6.50
2019-03-21T01:16:28.178Z,6.70
2019-03-21T01:18:58.101Z,6.70
2019-03-21T01:21:27.962Z,6.50
2019-03-21T01:23:57.892Z,6.50
2019-03-21T01:26:27.757Z,6.50
2019-03-21T01:28:57.708Z,6.40
2019-03-21T01:31:28.314Z,6.30
2019-03-21T01:33:58.495Z,6.20
2019-03-21T01:36:28.319Z,6.30
2019-03-21T01:38:59.165Z,6.40
2019-03-21T01:41:29.050Z,6.40
2019-03-21T01:43:58.942Z,6.40
2019-03-21T01:46:28.959Z,6.40
2019-03-21T01:48:58.847Z,6.40
2019-03-21T01:51:28.850Z,6.30
2019-03-21T01:53:58.683Z,6.20
2019-03-21T01:56:29.836Z,6.20
2019-03-21T01:58:59.966Z,6.20
2019-03-21T02:01:29.852Z,6.20
2019-03-21T02:04:00.127Z,6.30
2019-03-21T04:47:42.844Z,5.10
2019-03-21T04:50:15.120Z,5.00
2019-03-21T04:52:44.857Z,4.90
2019-03-21T04:55:15.350Z,4.90
2019-03-21T04:57:45.115Z,4.80
2019-03-21T05:00:17.863Z,4.80
2019-03-21T05:02:47.726Z,4.90
2019-03-21T05:05:17.410Z,4.80
2019-03-21T05:07:47.396Z,4.70
2019-03-21T05:10:17.065Z,4.60
2019-03-21T05:12:46.789Z,4.50
2019-03-21T05:15:21.891Z,4.50
2019-03-21T05:17:52.250Z,4.50
2019-03-21T05:20:24.187Z,4.40
2019-03-21T05:22:54.055Z,4.40
2019-03-21T05:25:23.861Z,4.40
2019-03-21T05:27:53.680Z,4.40
2019-03-21T05:30:30.183Z,4.30
2019-03-21T05:32:59.986Z,4.30
2019-03-21T05:35:30.032Z,4.40
2019-03-21T05:37:59.820Z,4.60
2019-03-21T05:40:29.669Z,4.60
2019-03-21T05:43:11.104Z,4.50
2019-03-21T05:45:40.897Z,4.40
2019-03-21T05:48:10.796Z,4.40
2019-03-21T05:50:40.857Z,4.50
2019-03-21T05:53:10.596Z,4.50
2019-03-21T05:55:40.322Z,4.40
2019-03-21T05:58:10.109Z,4.50
2019-03-21T06:00:41.820Z,4.60
2019-03-21T06:03:17.697Z,4.60
2019-03-21T06:05:51.438Z,4.60
2019-03-21T06:08:24.648Z,4.60
2019-03-21T06:10:54.442Z,4.80
2019-03-21T06:13:24.168Z,5.00
2019-03-21T06:15:54.033Z,4.80
2019-03-21T06:18:38.445Z,4.80
2019-03-21T06:21:19.433Z,5.00
2019-03-21T06:24:20.317Z,4.80
2019-03-21T06:27:00.513Z,4.90
2019-03-21T06:29:30.577Z,5.00
2019-03-21T06:32:00.608Z,5.00
2019-03-21T06:34:30.465Z,5.10
2019-03-21T06:37:00.393Z,5.10
2019-03-21T06:39:30.276Z,5.00
2019-03-21T06:41:59.985Z,5.10
2019-03-21T06:44:29.778Z,5.20
2019-03-21T06:46:59.580Z,5.30
2019-03-21T06:49:29.752Z,5.50
2019-03-21T06:51:59.565Z,5.70
2019-03-21T06:54:29.650Z,5.80
2019-03-21T06:56:59.479Z,5.80
2019-03-21T06:59:29.636Z,5.80
2019-03-21T07:01:59.741Z,6.20
2019-03-21T07:04:29.490Z,6.50
2019-03-21T07:07:07.689Z,6.50
2019-03-21T07:09:30.950Z,6.30
2019-03-21T07:12:00.814Z,6.30
2019-03-21T07:14:30.549Z,6.30
2019-03-21T07:17:00.928Z,6.50
2019-03-21T07:19:30.813Z,6.70
2019-03-21T07:22:00.691Z,6.80
2019-03-21T07:24:30.508Z,6.90
2019-03-21T07:27:00.591Z,7.10
2019-03-21T07:29:30.437Z,7.20
2019-03-21T07:32:00.182Z,7.30
2019-03-21T07:34:29.857Z,7.30
2019-03-21T07:36:59.770Z,7.30
2019-03-21T07:39:29.658Z,7.30
2019-03-21T07:42:01.209Z,7.40
2019-03-21T07:44:31.232Z,7.60
2019-03-21T07:47:11.824Z,7.50
2019-03-21T07:49:32.862Z,7.50
2019-03-21T07:52:03.083Z,7.90
2019-03-21T07:54:33.127Z,8.00
2019-03-21T07:57:03.022Z,8.10
2019-03-21T07:59:32.846Z,8.10
2019-03-21T08:02:02.817Z,8.20
2019-03-21T08:04:32.545Z,8.40
2019-03-21T08:07:02.304Z,8.40
2019-03-21T08:09:32.142Z,8.40
2019-03-21T08:12:02.114Z,8.50
2019-03-21T08:14:31.982Z,8.60
2019-03-21T08:17:01.901Z,8.90
2019-03-21T08:19:31.725Z,9.20
2019-03-21T08:22:01.503Z,9.10
2019-03-21T08:24:31.788Z,9.10
2019-03-21T08:27:02.084Z,9.40
2019-03-21T08:29:32.833Z,9.40
2019-03-21T08:32:02.727Z,9.60
2019-03-21T08:34:32.609Z,9.70
2019-03-21T08:37:02.527Z,10.10
2019-03-21T08:39:32.541Z,10.10
2019-03-21T08:42:02.417Z,10.30
2019-03-21T08:44:32.320Z,10.40
2019-03-21T08:47:02.274Z,10.30
2019-03-21T08:49:32.013Z,10.10
2019-03-21T08:52:02.269Z,10.40
2019-03-21T08:54:32.137Z,10.40
2019-03-21T08:57:02.084Z,10.70
2019-03-21T08:59:31.964Z,10.90
2019-03-21T09:02:01.812Z,10.90
2019-03-21T09:04:31.606Z,11.00
2019-03-21T09:07:01.409Z,11.30
2019-03-21T09:09:31.147Z,11.40
2019-03-21T09:12:01.181Z,11.80
2019-03-21T09:14:30.961Z,11.90
2019-03-21T09:17:00.749Z,12.10
2019-03-21T09:19:30.608Z,12.00
2019-03-21T09:22:00.332Z,12.10
2019-03-21T09:24:30.151Z,12.30
2019-03-21T09:26:59.918Z,12.30
2019-03-21T09:29:29.676Z,12.50
2019-03-21T09:31:59.439Z,12.40
2019-03-21T09:34:29.377Z,12.50
2019-03-21T09:36:59.057Z,12.60
2019-03-21T09:39:28.857Z,13.10
2019-03-21T09:41:58.547Z,13.10
2019-03-21T09:44:29.221Z,13.00
2019-03-21T09:46:59.050Z,13.20
2019-03-21T09:49:28.917Z,13.40
2019-03-21T09:51:58.735Z,13.40
2019-03-21T09:54:28.727Z,13.30
2019-03-21T09:56:58.489Z,13.70
2019-03-21T09:59:28.561Z,13.90
2019-03-21T10:01:58.361Z,13.80
2019-03-21T10:04:28.197Z,14.00
2019-03-21T10:06:58.281Z,14.20
2019-03-21T10:09:28.439Z,14.50
2019-03-21T10:11:58.200Z,14.10
2019-03-21T10:14:28.201Z,14.40
2019-03-21T10:16:58.215Z,14.60
2019-03-21T10:19:28.190Z,14.40
2019-03-21T10:21:57.986Z,14.30
2019-03-21T10:24:27.843Z,14.60
2019-03-21T10:26:57.714Z,14.60
2019-03-21T10:29:27.838Z,14.50
2019-03-21T10:31:57.894Z,14.90
2019-03-21T10:34:28.071Z,14.70
2019-03-21T10:36:58.101Z,14.70
2019-03-21T10:39:27.789Z,14.90
2019-03-21T10:41:57.502Z,15.20
2019-03-21T10:44:27.265Z,15.30
2019-03-21T10:46:57.088Z,15.20
2019-03-21T10:49:27.297Z,15.50
2019-03-21T10:51:57.449Z,15.50
2019-03-21T10:54:27.312Z,15.60
2019-03-21T10:56:58.225Z,15.40
2019-03-21T10:59:28.356Z,15.30
2019-03-21T11:02:06.900Z,15.30
2019-03-21T11:04:29.689Z,15.50
2019-03-21T11:07:01.458Z,15.50
2019-03-21T11:09:31.684Z,15.10
2019-03-21T11:12:01.509Z,14.70
2019-03-21T11:14:31.557Z,14.60
2019-03-21T11:17:01.594Z,15.20
2019-03-21T11:19:31.368Z,15.30
2019-03-21T11:22:06.346Z,15.60
2019-03-21T11:24:32.738Z,13.90
2019-03-21T11:27:02.529Z,15.60
2019-03-21T11:29:32.625Z,15.70
2019-03-21T11:32:02.448Z,15.70
2019-03-21T11:34:32.546Z,14.30
2019-03-21T11:37:02.428Z,15.40
2019-03-21T11:39:32.421Z,15.50
2019-03-21T11:42:02.570Z,15.60
2019-03-21T11:44:32.621Z,15.70
2019-03-21T11:47:02.466Z,15.80
2019-03-21T11:49:32.356Z,15.80
2019-03-21T11:52:02.228Z,14.90
2019-03-21T11:54:32.095Z,16.30
2019-03-21T11:57:01.879Z,16.10
2019-03-21T11:59:41.581Z,16.30
2019-03-21T12:02:03.481Z,16.50
2019-03-21T12:04:33.252Z,16.60
2019-03-21T12:07:03.348Z,16.90
2019-03-21T12:09:33.478Z,16.80
2019-03-21T12:12:03.265Z,16.90
2019-03-21T12:14:33.067Z,17.10
2019-03-21T12:17:02.858Z,17.20
2019-03-21T12:19:32.829Z,17.30
2019-03-21T12:22:02.633Z,17.00
2019-03-21T12:24:32.327Z,16.80
2019-03-21T12:27:02.550Z,16.70
2019-03-21T12:29:32.435Z,16.60
2019-03-21T12:32:02.287Z,16.90
2019-03-21T12:34:32.145Z,17.40
2019-03-21T12:37:01.941Z,17.80
2019-03-21T12:39:32.075Z,17.70
2019-03-21T12:42:01.878Z,18.00
2019-03-21T12:44:31.877Z,17.70
2019-03-21T12:47:01.997Z,18.20
2019-03-21T12:49:32.314Z,18.30
2019-03-21T12:52:02.471Z,18.70
2019-03-21T12:54:32.578Z,18.10
2019-03-21T12:57:02.464Z,18.20
2019-03-21T12:59:32.210Z,18.80
2019-03-21T13:02:02.398Z,18.40
2019-03-21T13:04:32.205Z,18.50
2019-03-21T13:07:01.944Z,19.10
2019-03-21T13:09:31.744Z,19.20
2019-03-21T13:12:01.600Z,19.10
2019-03-21T13:14:31.443Z,19.00
2019-03-21T13:17:01.235Z,19.20
2019-03-21T13:19:31.221Z,19.20
2019-03-21T13:22:00.953Z,19.50
2019-03-21T13:24:30.805Z,19.40
2019-03-21T13:27:00.761Z,19.70
2019-03-21T13:29:30.469Z,19.40
2019-03-21T13:32:00.311Z,19.90
2019-03-21T13:34:30.114Z,19.70
2019-03-21T13:37:00.105Z,20.10
2019-03-21T13:39:29.909Z,20.20
2019-03-21T13:42:00.041Z,20.40
2019-03-21T13:44:29.847Z,21.20
2019-03-21T13:46:59.616Z,21.20
2019-03-21T13:49:29.605Z,20.10
2019-03-21T13:51:59.451Z,20.50
2019-03-21T13:54:29.133Z,20.00
2019-03-21T13:56:59.223Z,19.90
2019-03-21T13:59:28.933Z,20.80
2019-03-21T14:01:58.818Z,21.40
2019-03-21T14:04:28.821Z,21.90
2019-03-21T14:06:58.793Z,22.50
2019-03-21T14:09:28.490Z,23.00
2019-03-21T14:11:58.620Z,23.10
2019-03-21T14:14:28.477Z,23.40
2019-03-21T14:16:58.269Z,23.20
2019-03-21T14:19:28.103Z,24.20
2019-03-21T14:21:58.245Z,23.90
2019-03-21T14:24:28.148Z,24.00
2019-03-21T14:26:58.300Z,23.00
2019-03-21T14:29:28.093Z,22.50
2019-03-21T14:31:57.997Z,24.00
2019-03-21T14:34:28.167Z,24.20
2019-03-21T14:36:59.079Z,24.20
2019-03-21T14:39:29.223Z,23.30
2019-03-21T14:41:59.097Z,23.80
2019-03-21T14:44:28.864Z,24.70
2019-03-21T14:46:59.330Z,24.10
2019-03-21T14:49:30.613Z,24.10
2019-03-21T14:52:03.297Z,24.70
2019-03-21T14:54:34.754Z,25.10
2019-03-21T14:57:05.127Z,25.10
2019-03-21T14:59:34.964Z,24.70
2019-03-21T15:02:04.858Z,25.20
2019-03-21T15:04:34.831Z,26.10
2019-03-21T15:07:04.836Z,26.30
2019-03-21T15:09:34.601Z,25.70
2019-03-21T15:12:04.665Z,24.50
2019-03-21T15:14:34.543Z,24.70
2019-03-21T15:17:04.621Z,24.10
2019-03-21T15:19:35.218Z,24.40
2019-03-21T15:22:05.458Z,26.10
2019-03-21T15:24:35.444Z,25.20
2019-03-21T15:27:05.356Z,25.00
2019-03-21T15:29:35.504Z,24.40
2019-03-21T15:32:05.669Z,25.60
2019-03-21T15:34:35.580Z,25.90
2019-03-21T15:37:05.389Z,25.20
2019-03-21T15:39:35.149Z,26.60
2019-03-21T15:42:05.167Z,25.60
2019-03-21T15:44:34.999Z,25.20
2019-03-21T15:47:05.743Z,25.40
2019-03-21T15:49:35.874Z,24.90
2019-03-21T15:52:06.000Z,25.30
2019-03-21T15:54:35.987Z,25.50
2019-03-21T15:57:05.810Z,25.60
2019-03-21T15:59:35.616Z,24.90
2019-03-21T16:02:05.719Z,26.30
2019-03-21T16:04:35.472Z,26.90
2019-03-21T16:07:05.246Z,27.40
2019-03-21T16:09:35.354Z,25.80
2019-03-21T16:12:05.163Z,27.00
2019-03-21T16:14:35.008Z,27.70
2019-03-21T16:17:04.739Z,25.60
2019-03-21T16:19:34.623Z,25.20
2019-03-21T16:22:04.882Z,24.70
2019-03-21T16:24:34.673Z,24.70
2019-03-21T16:27:04.867Z,24.70
2019-03-21T16:29:34.732Z,24.20
2019-03-21T16:32:04.963Z,24.10
2019-03-21T16:34:35.020Z,25.90
2019-03-21T16:37:05.305Z,25.00
2019-03-21T16:39:35.182Z,24.40
2019-03-21T16:42:05.348Z,24.30
2019-03-21T16:44:35.124Z,24.20
2019-03-21T16:47:04.949Z,24.30
2019-03-21T16:49:35.381Z,25.70
2019-03-21T16:52:05.275Z,26.20
2019-03-21T16:54:35.059Z,24.30
2019-03-21T16:57:04.985Z,23.10
2019-03-21T16:59:34.898Z,22.20
2019-03-21T17:02:04.709Z,23.40
2019-03-21T17:04:34.578Z,23.40
2019-03-21T17:07:04.473Z,21.80
2019-03-21T17:09:34.502Z,20.90
2019-03-21T17:12:04.565Z,20.60
2019-03-21T17:14:34.540Z,20.00
2019-03-21T17:17:04.314Z,20.20
2019-03-21T17:19:34.344Z,20.40
2019-03-21T17:22:04.187Z,19.80
2019-03-21T17:24:34.377Z,19.30
2019-03-21T17:27:04.537Z,18.40
2019-03-21T17:29:34.267Z,18.40
2019-03-21T17:32:04.432Z,18.30
2019-03-21T17:34:34.267Z,17.50
2019-03-21T17:37:04.222Z,17.00
2019-03-21T17:39:33.973Z,16.80
2019-03-21T17:42:03.777Z,16.60
2019-03-21T17:44:33.689Z,16.50
2019-03-21T17:47:03.664Z,16.30
2019-03-21T17:49:33.495Z,16.20
2019-03-21T17:52:03.275Z,16.10
2019-03-21T17:54:41.491Z,15.90
2019-03-21T17:57:05.034Z,15.80
2019-03-21T17:59:34.852Z,15.80
2019-03-21T18:02:04.625Z,15.70
2019-03-21T18:04:35.814Z,15.60
2019-03-21T18:07:06.005Z,15.50
2019-03-21T18:09:36.079Z,15.40
2019-03-21T18:12:06.248Z,15.30
2019-03-21T18:14:36.159Z,15.20
2019-03-21T18:17:06.350Z,15.20
2019-03-21T18:19:36.228Z,15.10
2019-03-21T18:22:06.054Z,15.00
2019-03-21T18:24:35.972Z,15.00
2019-03-21T18:27:06.187Z,15.00
2019-03-21T18:29:36.018Z,14.90
2019-03-21T18:32:06.122Z,14.80
2019-03-21T18:34:36.237Z,14.70
2019-03-21T18:37:05.990Z,14.60
2019-03-21T18:39:36.038Z,14.60
2019-03-21T18:42:05.970Z,14.50
2019-03-21T18:44:36.056Z,14.50
2019-03-21T18:47:05.779Z,14.40
2019-03-21T18:49:35.499Z,14.30
2019-03-21T18:52:05.320Z,14.30
2019-03-21T18:54:35.164Z,14.20
2019-03-21T18:57:05.002Z,14.20
2019-03-21T18:59:35.186Z,14.30
2019-03-21T19:02:05.011Z,14.20
2019-03-21T19:04:34.926Z,14.20
2019-03-21T19:07:04.886Z,14.20
2019-03-21T19:09:34.847Z,14.10
2019-03-21T19:12:04.738Z,14.10
2019-03-21T19:14:34.514Z,14.00
2019-03-21T19:17:04.250Z,13.90
2019-03-21T19:19:34.090Z,13.90
2019-03-21T19:22:03.844Z,13.90
2019-03-21T19:24:33.627Z,13.80
2019-03-21T19:27:03.605Z,13.80
2019-03-21T19:29:33.537Z,13.70
2019-03-21T19:32:03.334Z,13.70
2019-03-21T19:34:33.628Z,13.70
2019-03-21T19:37:03.694Z,13.60
2019-03-21T19:39:34.071Z,13.40
2019-03-21T19:42:05.608Z,13.50
2019-03-21T19:44:35.273Z,13.50
2019-03-21T19:47:05.144Z,13.50
2019-03-21T19:49:34.977Z,13.30
2019-03-21T19:52:05.577Z,13.40
2019-03-21T19:54:35.392Z,13.30
2019-03-21T19:57:05.301Z,13.40
2019-03-21T19:59:35.335Z,13.40
2019-03-21T20:02:05.237Z,13.20
2019-03-21T20:04:35.249Z,13.10
2019-03-21T20:07:05.734Z,13.10
2019-03-21T20:09:35.725Z,13.10
2019-03-21T20:12:05.518Z,13.20
2019-03-21T20:14:36.010Z,13.20
2019-03-21T20:17:06.732Z,13.20
2019-03-21T20:19:36.638Z,13.10
2019-03-21T20:22:06.614Z,12.90
2019-03-21T20:24:37.493Z,12.80
2019-03-21T20:27:09.987Z,12.80
2019-03-21T20:29:40.793Z,12.80
2019-03-21T20:32:20.110Z,12.80
2019-03-21T20:34:42.353Z,12.70
2019-03-21T20:37:12.498Z,12.80
2019-03-21T20:39:43.780Z,12.70
2019-03-21T20:42:13.922Z,12.50
2019-03-21T20:44:43.793Z,12.60
2019-03-21T20:47:14.049Z,12.50
2019-03-21T20:49:44.737Z,12.40
2019-03-21T20:52:14.768Z,12.20
2019-03-21T20:54:45.264Z,12.20
2019-03-21T20:57:15.572Z,12.00
2019-03-21T20:59:46.204Z,12.00
2019-03-21T21:02:16.109Z,12.00
2019-03-21T21:04:45.997Z,11.90
2019-03-21T21:07:16.225Z,11.80
2019-03-21T21:09:46.029Z,11.70
2019-03-21T21:12:15.824Z,11.70
2019-03-21T21:14:46.230Z,11.60
2019-03-21T21:17:16.148Z,11.60
2019-03-21T21:19:46.139Z,11.60
2019-03-21T21:22:15.906Z,11.50
2019-03-21T21:24:45.982Z,11.50
2019-03-21T21:27:15.813Z,11.40
2019-03-21T21:29:45.793Z,11.40
2019-03-21T21:32:15.726Z,11.40
2019-03-21T21:34:45.670Z,11.40
2019-03-21T21:37:15.841Z,11.40
2019-03-21T21:39:45.922Z,11.40
2019-03-21T21:42:15.838Z,11.40
2019-03-21T21:44:45.661Z,11.30
2019-03-21T21:47:15.934Z,11.20
2019-03-21T21:49:46.106Z,11.20
2019-03-21T21:52:15.965Z,11.10
2019-03-21T21:54:45.846Z,11.10
2019-03-21T21:57:15.992Z,11.10
2019-03-21T21:59:45.892Z,11.10
2019-03-21T22:02:15.717Z,11.00
2019-03-21T22:04:46.010Z,10.90
2019-03-21T22:07:15.835Z,10.90
2019-03-21T22:09:45.576Z,10.80
2019-03-21T22:12:15.598Z,10.90
2019-03-21T22:14:45.460Z,10.80
2019-03-21T22:17:15.803Z,10.80
2019-03-21T22:19:45.644Z,10.80
2019-03-21T22:22:15.795Z,10.60
2019-03-21T22:24:45.639Z,10.60
2019-03-21T22:27:15.375Z,10.60
2019-03-21T22:29:45.178Z,10.60
2019-03-21T22:32:15.217Z,10.50
2019-03-21T22:34:45.026Z,10.50
2019-03-21T22:37:15.114Z,10.50
2019-03-21T22:39:45.241Z,10.50
2019-03-21T22:42:14.992Z,10.40
2019-03-21T22:44:44.794Z,10.40
2019-03-21T22:47:14.859Z,10.30
2019-03-21T22:49:44.631Z,10.30
2019-03-21T22:52:14.695Z,10.40
2019-03-21T22:54:44.458Z,10.50
2019-03-21T22:57:14.257Z,10.50
2019-03-21T22:59:44.338Z,10.40
2019-03-21T23:02:14.514Z,10.40
2019-03-21T23:04:44.465Z,10.30
2019-03-21T23:07:14.331Z,10.30
2019-03-21T23:09:44.165Z,10.30
2019-03-21T23:12:14.201Z,10.20
2019-03-21T23:14:44.381Z,10.20
2019-03-21T23:17:14.242Z,10.20
2019-03-21T23:19:44.251Z,10.10
2019-03-21T23:22:13.940Z,10.20
2019-03-21T23:24:43.977Z,10.20
2019-03-21T23:27:14.246Z,10.20
2019-03-21T23:29:43.990Z,10.10
2019-03-21T23:32:13.798Z,9.90
2019-03-21T23:34:43.527Z,10.00
2019-03-21T23:37:13.674Z,9.90
2019-03-21T23:39:44.034Z,10.00
2019-03-21T23:42:13.782Z,10.00
2019-03-21T23:44:43.595Z,10.00
2019-03-21T23:47:13.404Z,9.90
2019-03-21T23:49:43.125Z,10.00
2019-03-21T23:52:12.949Z,9.90
2019-03-21T23:54:42.796Z,9.90
2019-03-21T23:57:12.491Z,9.70
2019-03-21T23:59:42.474Z,9.80
